首页
METAR-TAF:

METAR-TAF

机场 :

Marathon, 安大略省, 加拿大

纬度: 48-45-26N, 经度: 086-20-45W, 海拔: 315米

当前天气观测

该预报发布于5小时和43分钟前的21:00 UTC
风速6节,风向西转西南,在南转西南北转西北之间变化
温度 11°C
湿度 62%
气压 1020 hPa
能見度: 24.1公里
散云层高于8500英尺
散云层高于28000英尺

METAR: CYSP 312100Z 25006KT 200V330 15SM SCT085 SCT280 11/04 A3013 RMK CU3CI1 LAST STFD OBS/NEXT 011200 UTC SLP217

时间: 22:43 (02:43 UTC)

预报

该预报发布于13小时和13分钟前的13:30 UTC
预报有效从31日的 14点(UTC)到 31日的 21点(UTC)
风速8节,风向西转西南
能見度: 10公里
散云层高于9000英尺

TAF: CYSP 311330Z 3114/3121 25008KT P6SM SCT090 RMK NXT FCST WILL BE ISSUED AT 011345Z

超过4000个机场的气象观测和天气预报(METAR&TAF报告)。

可查询的气象台以黄色和红色小点在地图上表示。

将鼠标移到小点上方,可查看气象台名称。

然后点击查看天气观测和预报。

如需切换地图:点击带黑十字的绿色按钮放大地图;点击带横线的绿色按钮缩小地图;或者点击绿色箭头查看邻近地区的地图。


METAR-TAF: